sensor_id;sensor_type;location;lat;lon;timestamp;P1;durP1;ratioP1;P2;durP2;ratioP2
35126;SDS011;21300;52.006;5.798;2023-06-14T00:01:01;7.78;;;3.10;;
35126;SDS011;21300;52.006;5.798;2023-06-14T00:03:28;5.78;;;2.63;;
35126;SDS011;21300;52.006;5.798;2023-06-14T00:05:54;5.35;;;3.17;;
35126;SDS011;21300;52.006;5.798;2023-06-14T00:08:19;4.85;;;2.80;;
35126;SDS011;21300;52.006;5.798;2023-06-14T00:10:47;5.90;;;2.80;;
35126;SDS011;21300;52.006;5.798;2023-06-14T00:13:13;6.28;;;3.05;;
35126;SDS011;21300;52.006;5.798;2023-06-14T00:15:39;7.32;;;2.75;;
35126;SDS011;21300;52.006;5.798;2023-06-14T00:18:05;7.38;;;2.80;;
35126;SDS011;21300;52.006;5.798;2023-06-14T00:20:31;5.60;;;2.97;;
35126;SDS011;21300;52.006;5.798;2023-06-14T00:22:58;5.97;;;2.95;;
35126;SDS011;21300;52.006;5.798;2023-06-14T00:25:27;4.68;;;2.75;;
35126;SDS011;21300;52.006;5.798;2023-06-14T00:27:53;8.00;;;3.30;;
35126;SDS011;21300;52.006;5.798;2023-06-14T00:30:20;7.32;;;2.85;;
35126;SDS011;21300;52.006;5.798;2023-06-14T00:32:46;6.35;;;2.72;;
35126;SDS011;21300;52.006;5.798;2023-06-14T00:35:12;5.47;;;2.92;;
35126;SDS011;21300;52.006;5.798;2023-06-14T00:37:38;9.75;;;2.90;;
35126;SDS011;21300;52.006;5.798;2023-06-14T00:40:05;9.65;;;3.25;;
35126;SDS011;21300;52.006;5.798;2023-06-14T00:42:31;5.20;;;3.03;;
35126;SDS011;21300;52.006;5.798;2023-06-14T00:44:57;7.60;;;2.78;;
35126;SDS011;21300;52.006;5.798;2023-06-14T00:47:23;5.53;;;2.58;;
35126;SDS011;21300;52.006;5.798;2023-06-14T00:49:50;10.90;;;2.80;;
35126;SDS011;21300;52.006;5.798;2023-06-14T00:52:16;4.97;;;2.90;;
35126;SDS011;21300;52.006;5.798;2023-06-14T00:54:42;8.30;;;2.78;;
35126;SDS011;21300;52.006;5.798;2023-06-14T00:57:12;4.25;;;2.63;;
35126;SDS011;21300;52.006;5.798;2023-06-14T00:59:40;5.28;;;2.80;;
35126;SDS011;21300;52.006;5.798;2023-06-14T01:02:08;4.90;;;2.65;;
35126;SDS011;21300;52.006;5.798;2023-06-14T01:04:34;5.63;;;2.75;;
35126;SDS011;21300;52.006;5.798;2023-06-14T01:15:16;7.50;;;3.13;;
35126;SDS011;21300;52.006;5.798;2023-06-14T01:17:42;6.32;;;2.78;;
35126;SDS011;21300;52.006;5.798;2023-06-14T01:20:11;5.10;;;3.08;;
35126;SDS011;21300;52.006;5.798;2023-06-14T01:22:48;5.82;;;2.80;;
35126;SDS011;21300;52.006;5.798;2023-06-14T01:25:18;7.82;;;3.15;;
35126;SDS011;21300;52.006;5.798;2023-06-14T01:28:04;5.88;;;2.50;;
35126;SDS011;21300;52.006;5.798;2023-06-14T01:30:35;6.05;;;2.55;;
35126;SDS011;21300;52.006;5.798;2023-06-14T01:33:17;7.20;;;3.20;;
35126;SDS011;21300;52.006;5.798;2023-06-14T01:35:46;5.10;;;2.35;;
35126;SDS011;21300;52.006;5.798;2023-06-14T01:38:13;5.00;;;2.67;;
35126;SDS011;21300;52.006;5.798;2023-06-14T01:40:40;6.75;;;2.85;;
35126;SDS011;21300;52.006;5.798;2023-06-14T01:43:08;6.43;;;2.70;;
35126;SDS011;21300;52.006;5.798;2023-06-14T01:45:35;6.10;;;2.65;;
35126;SDS011;21300;52.006;5.798;2023-06-14T01:48:02;4.88;;;2.90;;
35126;SDS011;21300;52.006;5.798;2023-06-14T01:50:30;6.43;;;2.75;;
35126;SDS011;21300;52.006;5.798;2023-06-14T01:52:56;7.45;;;2.92;;
35126;SDS011;21300;52.006;5.798;2023-06-14T01:55:22;4.82;;;2.50;;
35126;SDS011;21300;52.006;5.798;2023-06-14T01:57:49;8.50;;;2.72;;
35126;SDS011;21300;52.006;5.798;2023-06-14T02:00:15;6.60;;;2.80;;
35126;SDS011;21300;52.006;5.798;2023-06-14T02:02:43;4.95;;;2.58;;
35126;SDS011;21300;52.006;5.798;2023-06-14T02:05:09;3.80;;;2.55;;
35126;SDS011;21300;52.006;5.798;2023-06-14T02:07:35;9.82;;;3.33;;
35126;SDS011;21300;52.006;5.798;2023-06-14T02:10:02;4.43;;;2.40;;
35126;SDS011;21300;52.006;5.798;2023-06-14T02:12:28;5.18;;;2.65;;
35126;SDS011;21300;52.006;5.798;2023-06-14T02:14:53;5.15;;;2.60;;
35126;SDS011;21300;52.006;5.798;2023-06-14T02:17:19;6.07;;;2.60;;
35126;SDS011;21300;52.006;5.798;2023-06-14T02:19:45;6.45;;;2.50;;
35126;SDS011;21300;52.006;5.798;2023-06-14T02:22:11;6.22;;;2.65;;
35126;SDS011;21300;52.006;5.798;2023-06-14T02:24:36;6.88;;;3.42;;
35126;SDS011;21300;52.006;5.798;2023-06-14T02:27:02;9.13;;;2.78;;
35126;SDS011;21300;52.006;5.798;2023-06-14T02:29:28;6.97;;;2.40;;
35126;SDS011;21300;52.006;5.798;2023-06-14T02:31:54;7.00;;;3.20;;
35126;SDS011;21300;52.006;5.798;2023-06-14T02:34:20;11.27;;;2.83;;
35126;SDS011;21300;52.006;5.798;2023-06-14T02:36:47;8.52;;;2.80;;
35126;SDS011;21300;52.006;5.798;2023-06-14T02:39:13;7.15;;;2.70;;
35126;SDS011;21300;52.006;5.798;2023-06-14T02:41:39;7.15;;;2.25;;
35126;SDS011;21300;52.006;5.798;2023-06-14T02:44:04;8.02;;;2.55;;
35126;SDS011;21300;52.006;5.798;2023-06-14T02:46:31;4.90;;;2.75;;
35126;SDS011;21300;52.006;5.798;2023-06-14T02:48:57;4.10;;;2.75;;
35126;SDS011;21300;52.006;5.798;2023-06-14T02:51:22;4.72;;;2.78;;
35126;SDS011;21300;52.006;5.798;2023-06-14T02:53:48;6.18;;;2.80;;
35126;SDS011;21300;52.006;5.798;2023-06-14T02:56:14;5.82;;;2.70;;
35126;SDS011;21300;52.006;5.798;2023-06-14T02:58:42;7.47;;;2.47;;
35126;SDS011;21300;52.006;5.798;2023-06-14T03:01:08;3.63;;;2.40;;
35126;SDS011;21300;52.006;5.798;2023-06-14T03:03:37;7.25;;;3.10;;
35126;SDS011;21300;52.006;5.798;2023-06-14T03:06:03;5.47;;;2.65;;
35126;SDS011;21300;52.006;5.798;2023-06-14T03:08:30;7.07;;;2.60;;
35126;SDS011;21300;52.006;5.798;2023-06-14T03:10:58;4.88;;;2.25;;
35126;SDS011;21300;52.006;5.798;2023-06-14T03:13:23;5.75;;;2.50;;
35126;SDS011;21300;52.006;5.798;2023-06-14T03:15:49;8.50;;;2.90;;
35126;SDS011;21300;52.006;5.798;2023-06-14T03:18:18;4.80;;;2.50;;
35126;SDS011;21300;52.006;5.798;2023-06-14T03:20:44;5.95;;;2.47;;
35126;SDS011;21300;52.006;5.798;2023-06-14T03:23:10;4.25;;;2.47;;
35126;SDS011;21300;52.006;5.798;2023-06-14T03:25:37;7.00;;;2.42;;
35126;SDS011;21300;52.006;5.798;2023-06-14T03:28:04;4.03;;;2.35;;
35126;SDS011;21300;52.006;5.798;2023-06-14T03:30:30;8.25;;;2.67;;
35126;SDS011;21300;52.006;5.798;2023-06-14T03:32:56;4.68;;;2.25;;
35126;SDS011;21300;52.006;5.798;2023-06-14T03:35:22;9.70;;;2.72;;
35126;SDS011;21300;52.006;5.798;2023-06-14T03:37:48;5.97;;;2.50;;
35126;SDS011;21300;52.006;5.798;2023-06-14T03:40:15;4.95;;;2.45;;
35126;SDS011;21300;52.006;5.798;2023-06-14T03:42:43;7.22;;;2.42;;
35126;SDS011;21300;52.006;5.798;2023-06-14T03:45:09;4.47;;;2.47;;
35126;SDS011;21300;52.006;5.798;2023-06-14T03:47:35;8.60;;;3.03;;
35126;SDS011;21300;52.006;5.798;2023-06-14T03:50:01;11.43;;;2.50;;
35126;SDS011;21300;52.006;5.798;2023-06-14T03:52:28;6.90;;;2.80;;
35126;SDS011;21300;52.006;5.798;2023-06-14T03:54:54;9.70;;;2.67;;
35126;SDS011;21300;52.006;5.798;2023-06-14T03:57:20;4.45;;;2.30;;
35126;SDS011;21300;52.006;5.798;2023-06-14T03:59:46;5.90;;;2.50;;
35126;SDS011;21300;52.006;5.798;2023-06-14T04:02:12;13.40;;;2.78;;
35126;SDS011;21300;52.006;5.798;2023-06-14T04:04:41;8.63;;;2.75;;
35126;SDS011;21300;52.006;5.798;2023-06-14T04:07:09;6.57;;;2.85;;
35126;SDS011;21300;52.006;5.798;2023-06-14T04:09:36;8.27;;;2.88;;
35126;SDS011;21300;52.006;5.798;2023-06-14T04:12:02;5.93;;;2.92;;
35126;SDS011;21300;52.006;5.798;2023-06-14T04:14:28;4.95;;;2.70;;
35126;SDS011;21300;52.006;5.798;2023-06-14T04:16:54;6.68;;;2.58;;
35126;SDS011;21300;52.006;5.798;2023-06-14T04:19:19;4.57;;;2.55;;
35126;SDS011;21300;52.006;5.798;2023-06-14T04:21:45;7.60;;;3.15;;
35126;SDS011;21300;52.006;5.798;2023-06-14T04:24:10;8.20;;;2.50;;
35126;SDS011;21300;52.006;5.798;2023-06-14T04:26:42;8.30;;;2.65;;
35126;SDS011;21300;52.006;5.798;2023-06-14T04:29:13;5.60;;;2.60;;
35126;SDS011;21300;52.006;5.798;2023-06-14T04:31:41;4.40;;;2.60;;
35126;SDS011;21300;52.006;5.798;2023-06-14T04:34:07;5.10;;;2.30;;
35126;SDS011;21300;52.006;5.798;2023-06-14T04:36:33;7.32;;;2.65;;
35126;SDS011;21300;52.006;5.798;2023-06-14T04:39:02;8.18;;;2.70;;
35126;SDS011;21300;52.006;5.798;2023-06-14T04:41:29;5.45;;;2.47;;
35126;SDS011;21300;52.006;5.798;2023-06-14T04:43:58;8.57;;;2.63;;
35126;SDS011;21300;52.006;5.798;2023-06-14T04:46:29;6.20;;;2.92;;
35126;SDS011;21300;52.006;5.798;2023-06-14T04:48:57;6.15;;;2.50;;
35126;SDS011;21300;52.006;5.798;2023-06-14T04:51:27;3.67;;;2.40;;
35126;SDS011;21300;52.006;5.798;2023-06-14T04:53:58;4.25;;;2.63;;
35126;SDS011;21300;52.006;5.798;2023-06-14T04:56:24;7.15;;;2.75;;
35126;SDS011;21300;52.006;5.798;2023-06-14T04:58:50;3.47;;;2.20;;
35126;SDS011;21300;52.006;5.798;2023-06-14T05:01:17;6.85;;;2.70;;
35126;SDS011;21300;52.006;5.798;2023-06-14T05:03:43;5.22;;;2.60;;
35126;SDS011;21300;52.006;5.798;2023-06-14T05:06:10;8.20;;;2.97;;
35126;SDS011;21300;52.006;5.798;2023-06-14T05:08:37;6.03;;;2.60;;
35126;SDS011;21300;52.006;5.798;2023-06-14T05:11:02;4.00;;;2.58;;
35126;SDS011;21300;52.006;5.798;2023-06-14T05:13:28;4.55;;;2.58;;
35126;SDS011;21300;52.006;5.798;2023-06-14T05:15:53;4.25;;;2.47;;
35126;SDS011;21300;52.006;5.798;2023-06-14T05:18:19;4.95;;;2.53;;
35126;SDS011;21300;52.006;5.798;2023-06-14T05:20:45;6.20;;;2.30;;
35126;SDS011;21300;52.006;5.798;2023-06-14T05:23:11;10.70;;;2.75;;
35126;SDS011;21300;52.006;5.798;2023-06-14T05:25:41;5.57;;;2.55;;
35126;SDS011;21300;52.006;5.798;2023-06-14T05:28:08;5.95;;;2.65;;
35126;SDS011;21300;52.006;5.798;2023-06-14T05:30:33;3.97;;;2.78;;
35126;SDS011;21300;52.006;5.798;2023-06-14T05:32:59;4.75;;;2.83;;
35126;SDS011;21300;52.006;5.798;2023-06-14T05:35:24;5.95;;;2.80;;
35126;SDS011;21300;52.006;5.798;2023-06-14T05:37:51;6.35;;;2.47;;
35126;SDS011;21300;52.006;5.798;2023-06-14T05:40:18;4.45;;;2.67;;
35126;SDS011;21300;52.006;5.798;2023-06-14T05:42:45;6.65;;;2.88;;
35126;SDS011;21300;52.006;5.798;2023-06-14T05:45:11;5.47;;;2.50;;
35126;SDS011;21300;52.006;5.798;2023-06-14T05:47:36;4.95;;;2.80;;
35126;SDS011;21300;52.006;5.798;2023-06-14T05:50:02;3.95;;;2.40;;
35126;SDS011;21300;52.006;5.798;2023-06-14T05:52:28;4.97;;;2.53;;
35126;SDS011;21300;52.006;5.798;2023-06-14T05:54:54;4.50;;;2.33;;
35126;SDS011;21300;52.006;5.798;2023-06-14T05:57:20;4.32;;;2.30;;
35126;SDS011;21300;52.006;5.798;2023-06-14T05:59:46;5.40;;;2.63;;
35126;SDS011;21300;52.006;5.798;2023-06-14T06:02:11;4.47;;;2.63;;
35126;SDS011;21300;52.006;5.798;2023-06-14T06:04:37;6.07;;;2.40;;
35126;SDS011;21300;52.006;5.798;2023-06-14T06:07:03;5.50;;;2.38;;
35126;SDS011;21300;52.006;5.798;2023-06-14T06:09:29;5.97;;;2.40;;
35126;SDS011;21300;52.006;5.798;2023-06-14T06:11:54;3.70;;;2.33;;
35126;SDS011;21300;52.006;5.798;2023-06-14T06:14:20;6.13;;;2.50;;
35126;SDS011;21300;52.006;5.798;2023-06-14T06:16:46;3.28;;;2.50;;
35126;SDS011;21300;52.006;5.798;2023-06-14T06:19:11;6.47;;;2.60;;
35126;SDS011;21300;52.006;5.798;2023-06-14T06:21:37;5.60;;;2.10;;
35126;SDS011;21300;52.006;5.798;2023-06-14T06:24:04;6.20;;;2.70;;
35126;SDS011;21300;52.006;5.798;2023-06-14T06:26:30;9.75;;;2.70;;
35126;SDS011;21300;52.006;5.798;2023-06-14T06:28:57;6.50;;;2.45;;
35126;SDS011;21300;52.006;5.798;2023-06-14T06:31:23;10.13;;;2.50;;
35126;SDS011;21300;52.006;5.798;2023-06-14T06:33:49;6.28;;;2.47;;
35126;SDS011;21300;52.006;5.798;2023-06-14T06:36:15;3.50;;;2.30;;
35126;SDS011;21300;52.006;5.798;2023-06-14T06:38:41;5.45;;;2.30;;
35126;SDS011;21300;52.006;5.798;2023-06-14T06:41:07;4.30;;;2.53;;
35126;SDS011;21300;52.006;5.798;2023-06-14T06:43:32;6.22;;;2.78;;
35126;SDS011;21300;52.006;5.798;2023-06-14T06:45:58;5.45;;;2.75;;
35126;SDS011;21300;52.006;5.798;2023-06-14T06:48:23;7.38;;;2.60;;
35126;SDS011;21300;52.006;5.798;2023-06-14T06:50:49;5.93;;;2.55;;
35126;SDS011;21300;52.006;5.798;2023-06-14T06:53:16;3.40;;;2.53;;
35126;SDS011;21300;52.006;5.798;2023-06-14T06:55:43;3.47;;;2.28;;
35126;SDS011;21300;52.006;5.798;2023-06-14T06:58:09;4.13;;;2.35;;
35126;SDS011;21300;52.006;5.798;2023-06-14T07:00:35;6.28;;;2.55;;
35126;SDS011;21300;52.006;5.798;2023-06-14T07:03:00;5.07;;;2.47;;
35126;SDS011;21300;52.006;5.798;2023-06-14T07:05:26;6.75;;;2.65;;
35126;SDS011;21300;52.006;5.798;2023-06-14T07:07:52;7.45;;;2.15;;
35126;SDS011;21300;52.006;5.798;2023-06-14T07:10:17;6.38;;;2.55;;
35126;SDS011;21300;52.006;5.798;2023-06-14T07:12:44;5.50;;;2.65;;
35126;SDS011;21300;52.006;5.798;2023-06-14T07:15:09;6.32;;;2.33;;
35126;SDS011;21300;52.006;5.798;2023-06-14T07:17:36;3.95;;;2.03;;
35126;SDS011;21300;52.006;5.798;2023-06-14T07:20:02;3.33;;;1.85;;
35126;SDS011;21300;52.006;5.798;2023-06-14T07:22:32;2.10;;;1.90;;
35126;SDS011;21300;52.006;5.798;2023-06-14T07:24:58;8.60;;;2.25;;
35126;SDS011;21300;52.006;5.798;2023-06-14T07:27:23;3.80;;;1.90;;
35126;SDS011;21300;52.006;5.798;2023-06-14T07:29:49;5.72;;;2.38;;
35126;SDS011;21300;52.006;5.798;2023-06-14T07:32:14;4.25;;;1.65;;
35126;SDS011;21300;52.006;5.798;2023-06-14T07:34:40;3.15;;;1.92;;
35126;SDS011;21300;52.006;5.798;2023-06-14T07:37:05;4.88;;;1.77;;
35126;SDS011;21300;52.006;5.798;2023-06-14T07:39:31;7.20;;;1.85;;
35126;SDS011;21300;52.006;5.798;2023-06-14T07:41:57;7.97;;;3.35;;
35126;SDS011;21300;52.006;5.798;2023-06-14T07:44:22;3.95;;;1.80;;
35126;SDS011;21300;52.006;5.798;2023-06-14T07:46:48;4.85;;;1.90;;
35126;SDS011;21300;52.006;5.798;2023-06-14T07:49:14;3.92;;;1.98;;
35126;SDS011;21300;52.006;5.798;2023-06-14T07:51:40;2.70;;;1.85;;
35126;SDS011;21300;52.006;5.798;2023-06-14T07:54:05;2.35;;;1.50;;
35126;SDS011;21300;52.006;5.798;2023-06-14T07:56:32;3.75;;;1.48;;
35126;SDS011;21300;52.006;5.798;2023-06-14T07:58:58;3.75;;;1.85;;
35126;SDS011;21300;52.006;5.798;2023-06-14T08:01:23;2.00;;;1.40;;
35126;SDS011;21300;52.006;5.798;2023-06-14T08:03:50;2.13;;;1.38;;
35126;SDS011;21300;52.006;5.798;2023-06-14T08:06:16;1.90;;;1.30;;
35126;SDS011;21300;52.006;5.798;2023-06-14T08:08:42;4.35;;;1.85;;
35126;SDS011;21300;52.006;5.798;2023-06-14T08:11:07;4.15;;;1.35;;
35126;SDS011;21300;52.006;5.798;2023-06-14T08:13:33;2.55;;;1.60;;
35126;SDS011;21300;52.006;5.798;2023-06-14T08:15:58;5.75;;;1.40;;
35126;SDS011;21300;52.006;5.798;2023-06-14T08:18:26;5.70;;;1.48;;
35126;SDS011;21300;52.006;5.798;2023-06-14T08:20:51;7.05;;;1.40;;
35126;SDS011;21300;52.006;5.798;2023-06-14T08:23:19;3.80;;;1.40;;
35126;SDS011;21300;52.006;5.798;2023-06-14T08:25:46;3.55;;;1.48;;
35126;SDS011;21300;52.006;5.798;2023-06-14T08:28:12;3.67;;;1.70;;
35126;SDS011;21300;52.006;5.798;2023-06-14T08:30:37;2.30;;;1.38;;
35126;SDS011;21300;52.006;5.798;2023-06-14T08:33:03;5.60;;;1.50;;
35126;SDS011;21300;52.006;5.798;2023-06-14T08:35:29;2.85;;;1.40;;
35126;SDS011;21300;52.006;5.798;2023-06-14T08:37:54;2.33;;;1.42;;
35126;SDS011;21300;52.006;5.798;2023-06-14T08:40:21;3.38;;;1.15;;
35126;SDS011;21300;52.006;5.798;2023-06-14T08:42:50;7.95;;;2.17;;
35126;SDS011;21300;52.006;5.798;2023-06-14T08:45:17;3.10;;;1.60;;
35126;SDS011;21300;52.006;5.798;2023-06-14T08:47:44;2.40;;;1.73;;
35126;SDS011;21300;52.006;5.798;2023-06-14T08:50:10;2.70;;;1.42;;
35126;SDS011;21300;52.006;5.798;2023-06-14T08:52:38;3.47;;;1.55;;
35126;SDS011;21300;52.006;5.798;2023-06-14T08:55:14;3.20;;;1.48;;
35126;SDS011;21300;52.006;5.798;2023-06-14T08:57:40;2.78;;;1.80;;
35126;SDS011;21300;52.006;5.798;2023-06-14T09:00:06;3.95;;;1.42;;
35126;SDS011;21300;52.006;5.798;2023-06-14T09:02:37;1.83;;;1.48;;
35126;SDS011;21300;52.006;5.798;2023-06-14T09:05:12;3.92;;;1.67;;
35126;SDS011;21300;52.006;5.798;2023-06-14T09:07:41;3.20;;;1.80;;
35126;SDS011;21300;52.006;5.798;2023-06-14T09:10:07;3.60;;;1.67;;
35126;SDS011;21300;52.006;5.798;2023-06-14T09:12:35;3.13;;;1.20;;
35126;SDS011;21300;52.006;5.798;2023-06-14T09:15:00;3.60;;;1.50;;
35126;SDS011;21300;52.006;5.798;2023-06-14T09:17:31;4.85;;;1.60;;
35126;SDS011;21300;52.006;5.798;2023-06-14T09:19:58;4.53;;;1.48;;
35126;SDS011;21300;52.006;5.798;2023-06-14T09:22:24;3.47;;;1.42;;
35126;SDS011;21300;52.006;5.798;2023-06-14T09:24:49;2.92;;;1.60;;
35126;SDS011;21300;52.006;5.798;2023-06-14T09:27:15;3.58;;;1.52;;
35126;SDS011;21300;52.006;5.798;2023-06-14T09:29:41;2.97;;;1.48;;
35126;SDS011;21300;52.006;5.798;2023-06-14T09:32:06;5.38;;;1.30;;
35126;SDS011;21300;52.006;5.798;2023-06-14T09:34:32;4.25;;;1.33;;
35126;SDS011;21300;52.006;5.798;2023-06-14T09:37:00;2.38;;;1.20;;
35126;SDS011;21300;52.006;5.798;2023-06-14T09:39:26;3.13;;;1.00;;
35126;SDS011;21300;52.006;5.798;2023-06-14T09:41:52;1.95;;;1.10;;
35126;SDS011;21300;52.006;5.798;2023-06-14T09:44:18;1.60;;;1.20;;
35126;SDS011;21300;52.006;5.798;2023-06-14T09:46:45;2.67;;;1.60;;
35126;SDS011;21300;52.006;5.798;2023-06-14T09:49:11;2.95;;;1.40;;
35126;SDS011;21300;52.006;5.798;2023-06-14T09:51:41;3.45;;;1.30;;
35126;SDS011;21300;52.006;5.798;2023-06-14T09:54:11;4.97;;;1.27;;
35126;SDS011;21300;52.006;5.798;2023-06-14T09:56:41;3.88;;;1.40;;
35126;SDS011;21300;52.006;5.798;2023-06-14T09:59:10;3.78;;;1.42;;
35126;SDS011;21300;52.006;5.798;2023-06-14T10:01:41;3.13;;;1.63;;
35126;SDS011;21300;52.006;5.798;2023-06-14T10:04:08;1.98;;;1.35;;
35126;SDS011;21300;52.006;5.798;2023-06-14T10:06:41;4.35;;;1.67;;
35126;SDS011;21300;52.006;5.798;2023-06-14T10:09:10;1.83;;;1.40;;
35126;SDS011;21300;52.006;5.798;2023-06-14T10:11:36;3.63;;;1.60;;
35126;SDS011;21300;52.006;5.798;2023-06-14T10:14:05;3.47;;;1.42;;
35126;SDS011;21300;52.006;5.798;2023-06-14T10:16:34;3.35;;;1.40;;
35126;SDS011;21300;52.006;5.798;2023-06-14T10:19:16;4.70;;;1.38;;
35126;SDS011;21300;52.006;5.798;2023-06-14T10:21:50;3.33;;;1.35;;
35126;SDS011;21300;52.006;5.798;2023-06-14T10:24:34;4.55;;;1.95;;
35126;SDS011;21300;52.006;5.798;2023-06-14T10:27:07;2.00;;;1.40;;
35126;SDS011;21300;52.006;5.798;2023-06-14T10:32:23;2.53;;;1.30;;
35126;SDS011;21300;52.006;5.798;2023-06-14T10:34:56;1.92;;;1.25;;
35126;SDS011;21300;52.006;5.798;2023-06-14T10:37:34;4.03;;;1.50;;
35126;SDS011;21300;52.006;5.798;2023-06-14T10:40:00;3.08;;;1.80;;
35126;SDS011;21300;52.006;5.798;2023-06-14T10:42:31;5.50;;;1.40;;
35126;SDS011;21300;52.006;5.798;2023-06-14T10:44:58;3.30;;;1.30;;
35126;SDS011;21300;52.006;5.798;2023-06-14T10:49:55;3.60;;;1.35;;
35126;SDS011;21300;52.006;5.798;2023-06-14T10:52:27;4.18;;;1.13;;
35126;SDS011;21300;52.006;5.798;2023-06-14T11:00:26;1.92;;;1.13;;
35126;SDS011;21300;52.006;5.798;2023-06-14T11:05:26;1.60;;;1.10;;
35126;SDS011;21300;52.006;5.798;2023-06-14T11:08:17;5.60;;;1.48;;
35126;SDS011;21300;52.006;5.798;2023-06-14T11:11:00;4.90;;;1.30;;
35126;SDS011;21300;52.006;5.798;2023-06-14T11:13:27;2.95;;;1.27;;
35126;SDS011;21300;52.006;5.798;2023-06-14T11:15:53;3.92;;;1.30;;
35126;SDS011;21300;52.006;5.798;2023-06-14T11:18:21;5.05;;;1.38;;
35126;SDS011;21300;52.006;5.798;2023-06-14T11:20:49;2.50;;;1.20;;
35126;SDS011;21300;52.006;5.798;2023-06-14T11:23:15;3.28;;;1.30;;
35126;SDS011;21300;52.006;5.798;2023-06-14T11:25:40;3.22;;;1.50;;
35126;SDS011;21300;52.006;5.798;2023-06-14T11:28:06;3.30;;;1.27;;
35126;SDS011;21300;52.006;5.798;2023-06-14T11:30:32;5.40;;;1.48;;
35126;SDS011;21300;52.006;5.798;2023-06-14T11:32:57;4.05;;;1.40;;
35126;SDS011;21300;52.006;5.798;2023-06-14T11:35:24;5.38;;;1.40;;
35126;SDS011;21300;52.006;5.798;2023-06-14T11:37:53;2.15;;;1.40;;
35126;SDS011;21300;52.006;5.798;2023-06-14T11:40:24;1.50;;;1.25;;
35126;SDS011;21300;52.006;5.798;2023-06-14T11:42:57;2.08;;;1.52;;
35126;SDS011;21300;52.006;5.798;2023-06-14T11:45:24;3.40;;;1.35;;
35126;SDS011;21300;52.006;5.798;2023-06-14T11:47:50;3.40;;;1.55;;
35126;SDS011;21300;52.006;5.798;2023-06-14T11:50:16;2.75;;;1.20;;
35126;SDS011;21300;52.006;5.798;2023-06-14T11:52:42;3.47;;;1.48;;
35126;SDS011;21300;52.006;5.798;2023-06-14T11:55:07;6.00;;;1.40;;
35126;SDS011;21300;52.006;5.798;2023-06-14T11:57:34;2.30;;;1.45;;
35126;SDS011;21300;52.006;5.798;2023-06-14T12:00:03;2.58;;;1.67;;
35126;SDS011;21300;52.006;5.798;2023-06-14T12:02:32;1.73;;;1.33;;
35126;SDS011;21300;52.006;5.798;2023-06-14T12:05:03;3.97;;;1.83;;
35126;SDS011;21300;52.006;5.798;2023-06-14T12:07:32;4.28;;;1.70;;
35126;SDS011;21300;52.006;5.798;2023-06-14T12:12:24;3.38;;;1.50;;
35126;SDS011;21300;52.006;5.798;2023-06-14T12:14:50;4.50;;;1.60;;
35126;SDS011;21300;52.006;5.798;2023-06-14T12:17:17;2.92;;;1.40;;
35126;SDS011;21300;52.006;5.798;2023-06-14T12:19:43;5.70;;;1.40;;
35126;SDS011;21300;52.006;5.798;2023-06-14T12:22:11;3.78;;;1.30;;
35126;SDS011;21300;52.006;5.798;2023-06-14T12:24:43;3.25;;;1.20;;
35126;SDS011;21300;52.006;5.798;2023-06-14T12:27:09;4.00;;;1.40;;
35126;SDS011;21300;52.006;5.798;2023-06-14T12:29:37;3.30;;;1.20;;
35126;SDS011;21300;52.006;5.798;2023-06-14T12:32:02;5.07;;;1.20;;
35126;SDS011;21300;52.006;5.798;2023-06-14T12:34:28;2.00;;;1.13;;
35126;SDS011;21300;52.006;5.798;2023-06-14T12:36:56;4.10;;;1.20;;
35126;SDS011;21300;52.006;5.798;2023-06-14T12:39:40;2.85;;;1.20;;
35126;SDS011;21300;52.006;5.798;2023-06-14T12:42:05;2.45;;;1.17;;
35126;SDS011;21300;52.006;5.798;2023-06-14T12:44:31;1.55;;;0.90;;
35126;SDS011;21300;52.006;5.798;2023-06-14T12:46:58;2.70;;;1.33;;
35126;SDS011;21300;52.006;5.798;2023-06-14T12:49:24;1.77;;;1.17;;
35126;SDS011;21300;52.006;5.798;2023-06-14T12:51:49;3.53;;;1.10;;
35126;SDS011;21300;52.006;5.798;2023-06-14T12:54:15;1.90;;;1.30;;
35126;SDS011;21300;52.006;5.798;2023-06-14T12:56:42;2.40;;;1.20;;
35126;SDS011;21300;52.006;5.798;2023-06-14T12:59:09;3.55;;;1.50;;
35126;SDS011;21300;52.006;5.798;2023-06-14T13:01:37;1.77;;;1.40;;
35126;SDS011;21300;52.006;5.798;2023-06-14T13:04:04;3.65;;;1.35;;
35126;SDS011;21300;52.006;5.798;2023-06-14T13:06:30;5.28;;;1.30;;
35126;SDS011;21300;52.006;5.798;2023-06-14T13:08:56;1.77;;;1.10;;
35126;SDS011;21300;52.006;5.798;2023-06-14T13:11:23;2.88;;;1.17;;
35126;SDS011;21300;52.006;5.798;2023-06-14T13:13:49;3.53;;;1.40;;
35126;SDS011;21300;52.006;5.798;2023-06-14T13:16:15;1.52;;;1.40;;
35126;SDS011;21300;52.006;5.798;2023-06-14T13:18:40;2.65;;;1.20;;
35126;SDS011;21300;52.006;5.798;2023-06-14T13:21:06;5.68;;;1.25;;
35126;SDS011;21300;52.006;5.798;2023-06-14T13:23:31;2.63;;;1.08;;
35126;SDS011;21300;52.006;5.798;2023-06-14T13:25:57;4.13;;;1.40;;
35126;SDS011;21300;52.006;5.798;2023-06-14T13:28:23;3.03;;;1.00;;
35126;SDS011;21300;52.006;5.798;2023-06-14T13:30:48;4.47;;;1.08;;
35126;SDS011;21300;52.006;5.798;2023-06-14T13:33:14;2.58;;;0.93;;
35126;SDS011;21300;52.006;5.798;2023-06-14T13:35:40;2.70;;;1.20;;
35126;SDS011;21300;52.006;5.798;2023-06-14T13:38:05;2.78;;;1.10;;
35126;SDS011;21300;52.006;5.798;2023-06-14T13:40:31;1.50;;;1.13;;
35126;SDS011;21300;52.006;5.798;2023-06-14T13:42:56;5.75;;;0.93;;
35126;SDS011;21300;52.006;5.798;2023-06-14T13:45:22;2.45;;;0.88;;
35126;SDS011;21300;52.006;5.798;2023-06-14T13:47:48;2.63;;;1.10;;
35126;SDS011;21300;52.006;5.798;2023-06-14T13:50:13;1.38;;;0.90;;
35126;SDS011;21300;52.006;5.798;2023-06-14T13:52:39;2.45;;;1.10;;
35126;SDS011;21300;52.006;5.798;2023-06-14T13:55:05;3.95;;;1.30;;
35126;SDS011;21300;52.006;5.798;2023-06-14T13:57:31;1.60;;;0.90;;
35126;SDS011;21300;52.006;5.798;2023-06-14T13:59:57;1.50;;;1.00;;
35126;SDS011;21300;52.006;5.798;2023-06-14T14:02:26;2.35;;;0.90;;
35126;SDS011;21300;52.006;5.798;2023-06-14T14:04:53;2.35;;;0.90;;
35126;SDS011;21300;52.006;5.798;2023-06-14T14:07:20;2.13;;;1.00;;
35126;SDS011;21300;52.006;5.798;2023-06-14T14:09:47;2.22;;;1.17;;
35126;SDS011;21300;52.006;5.798;2023-06-14T14:12:12;6.95;;;1.20;;
35126;SDS011;21300;52.006;5.798;2023-06-14T14:14:39;1.58;;;1.10;;
35126;SDS011;21300;52.006;5.798;2023-06-14T14:17:05;2.13;;;1.15;;
35126;SDS011;21300;52.006;5.798;2023-06-14T14:19:31;3.50;;;1.00;;
35126;SDS011;21300;52.006;5.798;2023-06-14T14:21:57;1.52;;;0.90;;
35126;SDS011;21300;52.006;5.798;2023-06-14T14:24:23;1.70;;;1.10;;
35126;SDS011;21300;52.006;5.798;2023-06-14T14:26:48;3.03;;;1.05;;
35126;SDS011;21300;52.006;5.798;2023-06-14T14:29:15;2.22;;;0.95;;
35126;SDS011;21300;52.006;5.798;2023-06-14T14:31:41;3.28;;;1.33;;
35126;SDS011;21300;52.006;5.798;2023-06-14T14:34:06;3.08;;;1.00;;
35126;SDS011;21300;52.006;5.798;2023-06-14T14:36:32;1.98;;;1.20;;
35126;SDS011;21300;52.006;5.798;2023-06-14T14:39:03;2.35;;;0.95;;
35126;SDS011;21300;52.006;5.798;2023-06-14T14:41:29;1.60;;;1.10;;
35126;SDS011;21300;52.006;5.798;2023-06-14T14:43:54;2.55;;;1.02;;
35126;SDS011;21300;52.006;5.798;2023-06-14T14:46:20;1.65;;;0.90;;
35126;SDS011;21300;52.006;5.798;2023-06-14T14:48:45;5.43;;;1.25;;
35126;SDS011;21300;52.006;5.798;2023-06-14T14:51:11;2.03;;;1.10;;
35126;SDS011;21300;52.006;5.798;2023-06-14T14:53:36;6.03;;;1.08;;
35126;SDS011;21300;52.006;5.798;2023-06-14T14:56:02;1.85;;;0.90;;
35126;SDS011;21300;52.006;5.798;2023-06-14T14:58:28;1.42;;;0.95;;
35126;SDS011;21300;52.006;5.798;2023-06-14T15:00:53;5.85;;;1.00;;
35126;SDS011;21300;52.006;5.798;2023-06-14T15:03:19;2.75;;;1.23;;
35126;SDS011;21300;52.006;5.798;2023-06-14T15:05:45;2.55;;;1.00;;
35126;SDS011;21300;52.006;5.798;2023-06-14T15:08:10;3.03;;;0.90;;
35126;SDS011;21300;52.006;5.798;2023-06-14T15:10:40;2.70;;;0.90;;